createdAt,value
2023-05-15T00:01:58.669Z,18.45
2023-05-15T00:04:28.593Z,18.13
2023-05-15T00:06:58.630Z,21.15
2023-05-15T00:09:28.414Z,17.35
2023-05-15T00:11:59.261Z,21.50
2023-05-15T00:14:29.593Z,18.98
2023-05-15T00:16:59.719Z,18.63
2023-05-15T00:19:30.256Z,19.65
2023-05-15T00:22:00.035Z,18.45
2023-05-15T00:24:29.966Z,19.30
2023-05-15T00:27:01.434Z,21.60
2023-05-15T00:29:33.346Z,21.02
2023-05-15T00:32:03.261Z,25.30
2023-05-15T00:34:33.413Z,22.27
2023-05-15T00:37:03.954Z,24.15
2023-05-15T00:39:34.774Z,20.70
2023-05-15T00:42:07.105Z,22.23
2023-05-15T00:44:38.068Z,28.02
2023-05-15T00:47:09.344Z,23.83
2023-05-15T00:49:39.980Z,21.77
2023-05-15T00:52:10.775Z,21.75
2023-05-15T00:54:41.762Z,23.17
2023-05-15T00:57:12.789Z,20.13
2023-05-15T00:59:43.925Z,26.75
2023-05-15T01:02:15.972Z,24.50
2023-05-15T01:04:46.236Z,23.77
2023-05-15T01:07:17.606Z,23.35
2023-05-15T01:09:51.636Z,23.60
2023-05-15T01:12:25.538Z,22.08
2023-05-15T01:14:56.388Z,27.02
2023-05-15T01:17:26.832Z,27.90
2023-05-15T01:19:58.762Z,22.40
2023-05-15T01:22:47.267Z,25.55
2023-05-15T01:25:55.664Z,22.70
2023-05-15T01:28:33.660Z,19.83
2023-05-15T01:31:12.961Z,24.33
2023-05-15T01:33:48.715Z,22.15
2023-05-15T01:36:35.144Z,26.95
2023-05-15T01:39:07.615Z,23.23
2023-05-15T01:41:59.032Z,24.48
2023-05-15T01:44:35.982Z,26.83
2023-05-15T01:47:16.856Z,23.40
2023-05-15T01:49:48.144Z,25.90
2023-05-15T01:52:26.828Z,21.00
2023-05-15T01:54:58.388Z,23.88
2023-05-15T01:57:30.447Z,22.17
2023-05-15T02:00:01.787Z,19.13
2023-05-15T02:02:34.397Z,25.13
2023-05-15T02:05:06.461Z,22.95
2023-05-15T02:07:37.676Z,30.30
2023-05-15T02:10:10.514Z,29.23
2023-05-15T02:12:43.635Z,21.15
2023-05-15T02:15:15.438Z,22.30
2023-05-15T02:17:45.627Z,20.45
2023-05-15T02:20:16.388Z,26.60
2023-05-15T02:22:46.547Z,19.88
2023-05-15T02:25:17.903Z,24.20
2023-05-15T02:27:58.341Z,20.90
2023-05-15T02:30:50.397Z,21.33
2023-05-15T02:33:47.680Z,36.05
2023-05-15T02:36:25.773Z,35.88
2023-05-15T02:38:57.695Z,33.53
2023-05-15T02:41:28.622Z,23.17
2023-05-15T02:43:59.519Z,22.40
2023-05-15T02:46:30.544Z,27.83
2023-05-15T02:49:03.350Z,22.77
2023-05-15T02:51:34.452Z,25.70
2023-05-15T02:54:05.315Z,22.50
2023-05-15T02:56:35.687Z,25.48
2023-05-15T02:59:05.834Z,21.13
2023-05-15T03:01:36.103Z,23.60
2023-05-15T03:04:06.302Z,23.30
2023-05-15T03:06:36.498Z,30.05
2023-05-15T03:09:06.798Z,21.02
2023-05-15T03:11:37.496Z,22.10
2023-05-15T03:14:07.883Z,20.88
2023-05-15T03:16:40.208Z,21.23
2023-05-15T03:19:13.310Z,24.20
2023-05-15T03:21:44.020Z,22.90
2023-05-15T03:24:14.111Z,20.67
2023-05-15T03:26:44.383Z,23.50
2023-05-15T03:29:15.288Z,24.92
2023-05-15T03:31:45.403Z,20.40
2023-05-15T03:34:15.378Z,23.17
2023-05-15T03:36:45.697Z,26.55
2023-05-15T03:39:15.921Z,26.17
2023-05-15T03:41:46.480Z,21.65
2023-05-15T03:44:16.288Z,25.13
2023-05-15T03:46:46.966Z,31.45
2023-05-15T03:49:17.342Z,24.38
2023-05-15T03:51:47.351Z,23.95
2023-05-15T03:54:17.804Z,29.33
2023-05-15T03:56:48.014Z,27.42
2023-05-15T03:59:18.630Z,27.58
2023-05-15T04:02:02.834Z,26.60
2023-05-15T04:04:34.215Z,20.98
2023-05-15T04:07:04.724Z,24.48
2023-05-15T04:09:34.752Z,24.90
2023-05-15T04:12:04.501Z,23.08
2023-05-15T04:14:34.406Z,23.52
2023-05-15T04:17:04.511Z,25.40
2023-05-15T04:19:34.858Z,23.00
2023-05-15T04:22:05.126Z,24.60
2023-05-15T04:24:35.610Z,22.50
2023-05-15T04:27:05.850Z,23.17
2023-05-15T04:29:36.334Z,21.77
2023-05-15T04:32:06.361Z,23.10
2023-05-15T04:34:37.100Z,20.73
2023-05-15T04:37:07.817Z,21.02
2023-05-15T04:39:37.670Z,22.95
2023-05-15T04:42:08.036Z,23.73
2023-05-15T04:44:38.196Z,22.25
2023-05-15T04:47:08.198Z,22.73
2023-05-15T04:49:38.280Z,27.52
2023-05-15T04:52:08.074Z,22.92
2023-05-15T04:54:39.044Z,26.73
2023-05-15T04:57:12.012Z,28.55
2023-05-15T04:59:42.392Z,25.52
2023-05-15T05:02:12.818Z,25.00
2023-05-15T05:04:46.854Z,25.08
2023-05-15T05:07:17.440Z,23.70
2023-05-15T05:09:47.376Z,23.00
2023-05-15T05:12:17.429Z,24.80
2023-05-15T05:14:47.327Z,24.35
2023-05-15T05:17:17.556Z,25.83
2023-05-15T05:19:47.367Z,22.75
2023-05-15T05:22:17.554Z,25.48
2023-05-15T05:24:47.428Z,25.35
2023-05-15T05:27:17.862Z,22.40
2023-05-15T05:29:48.013Z,24.42
2023-05-15T05:32:18.353Z,26.77
2023-05-15T05:34:48.172Z,26.75
2023-05-15T05:37:18.675Z,26.92
2023-05-15T05:39:48.649Z,23.05
2023-05-15T05:42:18.706Z,23.85
2023-05-15T05:44:48.576Z,26.60
2023-05-15T05:47:19.288Z,23.52
2023-05-15T05:49:52.401Z,24.85
2023-05-15T05:52:22.805Z,24.83
2023-05-15T05:54:52.671Z,24.58
2023-05-15T05:57:23.181Z,25.35
2023-05-15T05:59:53.678Z,24.80
2023-05-15T06:02:24.038Z,26.00
2023-05-15T06:04:57.579Z,28.00
2023-05-15T06:07:30.706Z,23.45
2023-05-15T06:10:03.227Z,26.58
2023-05-15T06:12:33.531Z,27.67
2023-05-15T06:15:03.713Z,28.08
2023-05-15T06:17:33.762Z,28.67
2023-05-15T06:20:03.978Z,28.20
2023-05-15T06:25:20.648Z,26.05
2023-05-15T06:27:50.501Z,24.13
2023-05-15T06:30:20.561Z,23.58
2023-05-15T06:32:50.409Z,28.65
2023-05-15T06:35:20.623Z,24.90
2023-05-15T06:37:52.293Z,27.77
2023-05-15T06:40:23.355Z,27.30
2023-05-15T06:42:53.537Z,26.02
2023-05-15T06:45:23.525Z,27.67
2023-05-15T06:47:53.921Z,29.92
2023-05-15T06:50:24.328Z,24.95
2023-05-15T06:52:54.624Z,26.83
2023-05-15T06:55:24.732Z,35.10
2023-05-15T06:57:55.106Z,27.02
2023-05-15T07:00:24.985Z,27.08
2023-05-15T07:02:55.119Z,25.52
2023-05-15T07:05:25.396Z,39.30
2023-05-15T07:07:56.413Z,29.63
2023-05-15T07:10:26.863Z,27.80
2023-05-15T07:12:57.385Z,25.92
2023-05-15T07:15:27.709Z,28.25
2023-05-15T07:17:57.921Z,25.50
2023-05-15T07:20:30.997Z,27.80
2023-05-15T07:23:02.664Z,27.25
2023-05-15T07:25:32.742Z,31.83
2023-05-15T07:28:03.032Z,27.17
2023-05-15T07:30:32.870Z,27.05
2023-05-15T07:33:02.999Z,28.48
2023-05-15T07:35:32.874Z,30.27
2023-05-15T07:38:03.212Z,27.58
2023-05-15T07:40:33.273Z,28.95
2023-05-15T07:43:03.300Z,26.10
2023-05-15T07:45:33.167Z,27.58
2023-05-15T07:48:22.315Z,27.25
2023-05-15T07:50:53.886Z,30.80
2023-05-15T07:53:24.073Z,28.77
2023-05-15T07:55:54.884Z,28.35
2023-05-15T07:58:25.742Z,29.08
2023-05-15T08:00:55.984Z,27.52
2023-05-15T08:03:26.493Z,29.00
2023-05-15T08:05:56.340Z,26.38
2023-05-15T08:08:26.450Z,31.25
2023-05-15T08:10:56.308Z,30.40
2023-05-15T08:13:26.888Z,30.65
2023-05-15T08:15:56.809Z,30.45
2023-05-15T08:18:26.960Z,34.25
2023-05-15T08:20:57.128Z,30.23
2023-05-15T08:23:27.665Z,28.95
2023-05-15T08:25:57.509Z,29.38
2023-05-15T08:28:27.529Z,30.13
2023-05-15T08:30:57.819Z,29.98
2023-05-15T08:33:28.079Z,30.23
2023-05-15T08:35:57.982Z,26.33
2023-05-15T08:38:29.103Z,27.17
2023-05-15T08:41:04.504Z,33.58
2023-05-15T08:43:37.874Z,31.85
2023-05-15T08:46:09.216Z,28.65
2023-05-15T08:48:42.379Z,29.60
2023-05-15T08:51:13.865Z,28.83
2023-05-15T08:53:44.349Z,34.47
2023-05-15T08:56:15.042Z,32.13
2023-05-15T08:58:46.670Z,35.45
2023-05-15T09:01:17.893Z,28.58
2023-05-15T09:03:48.817Z,31.60
2023-05-15T09:06:19.463Z,27.88
2023-05-15T09:08:50.651Z,36.67
2023-05-15T09:11:21.305Z,27.80
2023-05-15T09:13:51.480Z,33.60
2023-05-15T09:16:23.481Z,29.08
2023-05-15T09:18:55.386Z,28.60
2023-05-15T09:21:29.128Z,29.08
2023-05-15T09:24:25.524Z,27.15
2023-05-15T09:27:08.864Z,29.70
2023-05-15T09:29:40.781Z,28.10
2023-05-15T09:32:14.036Z,26.85
2023-05-15T09:34:46.178Z,28.73
2023-05-15T09:37:35.315Z,32.05
2023-05-15T09:40:15.263Z,31.05
2023-05-15T09:42:53.123Z,30.35
2023-05-15T09:45:23.523Z,31.50
2023-05-15T09:47:53.585Z,28.50
2023-05-15T09:50:26.239Z,28.95
2023-05-15T09:52:56.880Z,28.48
2023-05-15T09:55:27.254Z,29.25
2023-05-15T09:58:08.571Z,29.63
2023-05-15T10:00:48.658Z,32.78
2023-05-15T10:03:22.465Z,28.27
2023-05-15T10:05:53.443Z,38.42
2023-05-15T10:08:31.182Z,29.13
2023-05-15T10:11:06.588Z,30.35
2023-05-15T10:13:39.486Z,30.10
2023-05-15T10:16:09.929Z,29.88
2023-05-15T10:18:43.525Z,28.88
2023-05-15T10:21:15.834Z,33.17
2023-05-15T10:23:48.291Z,30.17
2023-05-15T10:26:26.135Z,34.50
2023-05-15T10:28:57.263Z,30.60
2023-05-15T10:31:28.575Z,33.63
2023-05-15T10:33:59.037Z,35.63
2023-05-15T10:36:30.860Z,36.67
2023-05-15T10:39:03.209Z,29.23
2023-05-15T10:41:41.095Z,30.85
2023-05-15T10:44:12.302Z,39.55
2023-05-15T10:46:43.083Z,48.20
2023-05-15T10:49:13.412Z,33.97
2023-05-15T10:51:45.084Z,30.25
2023-05-15T10:54:16.060Z,35.92
2023-05-15T10:56:46.164Z,33.05
2023-05-15T10:59:16.787Z,42.03
2023-05-15T11:01:47.360Z,36.33
2023-05-15T11:04:19.270Z,40.80
2023-05-15T11:06:51.009Z,40.97
2023-05-15T11:09:40.484Z,44.17
2023-05-15T11:12:15.475Z,45.80
2023-05-15T11:15:06.415Z,50.13
2023-05-15T11:17:36.698Z,49.28
2023-05-15T11:20:06.899Z,49.72
2023-05-15T11:22:37.886Z,50.65
2023-05-15T11:25:11.577Z,42.03
2023-05-15T11:27:49.280Z,42.45
2023-05-15T11:30:24.254Z,38.80
2023-05-15T11:33:12.801Z,40.08
2023-05-15T11:35:48.769Z,38.17
2023-05-15T11:38:26.440Z,50.50
2023-05-15T11:40:59.840Z,41.05
2023-05-15T11:43:33.189Z,41.60
2023-05-15T11:46:10.985Z,42.72
2023-05-15T11:48:46.169Z,39.90
2023-05-15T11:51:28.477Z,43.53
2023-05-15T11:53:59.875Z,41.83
2023-05-15T11:56:30.773Z,48.40
2023-05-15T11:59:02.754Z,43.35
2023-05-15T12:01:49.216Z,46.90
2023-05-15T12:04:20.428Z,42.85
2023-05-15T12:06:51.053Z,47.42
2023-05-15T12:09:23.156Z,54.33
2023-05-15T12:11:57.709Z,40.63
2023-05-15T12:14:31.967Z,47.67
2023-05-15T12:17:07.561Z,51.20
2023-05-15T12:19:39.020Z,44.67
2023-05-15T12:22:10.017Z,196.32
2023-05-15T12:24:44.032Z,156.40
2023-05-15T12:27:15.648Z,46.38
2023-05-15T12:29:45.931Z,54.80
2023-05-15T12:32:16.042Z,46.88
2023-05-15T12:34:46.359Z,47.63
2023-05-15T12:37:16.517Z,44.42
2023-05-15T12:40:14.285Z,49.95
2023-05-15T12:42:46.194Z,49.40
2023-05-15T12:45:18.938Z,52.25
2023-05-15T12:47:51.114Z,49.70
2023-05-15T12:50:25.898Z,54.83
2023-05-15T12:52:58.463Z,57.35
2023-05-15T12:55:37.587Z,53.10
2023-05-15T12:58:10.281Z,57.33
2023-05-15T13:00:43.259Z,52.05
2023-05-15T13:03:15.330Z,55.50
2023-05-15T13:05:47.971Z,58.55
2023-05-15T13:08:20.412Z,53.40
2023-05-15T13:10:58.011Z,61.40
2023-05-15T13:13:51.913Z,51.25
2023-05-15T13:16:26.102Z,61.90
2023-05-15T13:18:57.497Z,52.88
2023-05-15T13:21:28.180Z,52.65
2023-05-15T13:23:59.274Z,54.20
2023-05-15T13:26:32.137Z,73.18
2023-05-15T13:29:03.221Z,77.47
2023-05-15T13:31:34.282Z,78.07
2023-05-15T13:34:04.722Z,59.80
2023-05-15T13:36:34.660Z,54.03
2023-05-15T13:39:05.431Z,53.58
2023-05-15T13:41:35.499Z,57.58
2023-05-15T13:44:06.048Z,55.13
2023-05-15T13:46:36.392Z,52.17
2023-05-15T13:49:07.564Z,58.60
2023-05-15T13:51:38.020Z,49.22
2023-05-15T13:54:07.974Z,53.97
2023-05-15T13:56:37.941Z,57.50
2023-05-15T13:59:07.710Z,64.90
2023-05-15T14:01:37.709Z,71.47
2023-05-15T14:04:07.457Z,73.13
2023-05-15T14:06:37.594Z,76.78
2023-05-15T14:09:08.856Z,79.38
2023-05-15T14:11:39.019Z,74.35
2023-05-15T14:14:09.013Z,66.85
2023-05-15T14:16:38.925Z,66.03
2023-05-15T14:19:08.887Z,58.67
2023-05-15T14:21:43.182Z,53.03
2023-05-15T14:24:13.075Z,61.70
2023-05-15T14:26:42.893Z,57.47
2023-05-15T14:29:13.823Z,53.28
2023-05-15T14:31:45.253Z,51.05
2023-05-15T14:34:16.222Z,50.58
2023-05-15T14:36:47.839Z,57.85
2023-05-15T14:39:18.728Z,59.95
2023-05-15T14:41:49.116Z,56.47
2023-05-15T14:44:19.339Z,55.65
2023-05-15T14:46:49.210Z,57.38
2023-05-15T14:49:19.123Z,56.15
2023-05-15T14:51:48.924Z,55.88
2023-05-15T14:54:19.997Z,121.90
2023-05-15T14:56:51.117Z,64.57
2023-05-15T14:59:21.272Z,56.72
2023-05-15T15:01:51.134Z,48.67
2023-05-15T15:04:21.274Z,54.83
2023-05-15T15:06:51.424Z,55.25
2023-05-15T15:09:21.780Z,56.40
2023-05-15T15:11:51.766Z,50.20
2023-05-15T15:14:22.233Z,54.03
2023-05-15T15:16:52.200Z,56.92
2023-05-15T15:19:22.600Z,50.22
2023-05-15T15:21:53.154Z,45.55
2023-05-15T15:24:24.951Z,53.08
2023-05-15T15:26:55.075Z,50.65
2023-05-15T15:29:25.003Z,52.33
2023-05-15T15:31:55.608Z,57.92
2023-05-15T15:34:26.324Z,53.38
2023-05-15T15:36:56.157Z,51.05
2023-05-15T15:39:26.789Z,49.35
2023-05-15T15:41:56.636Z,102.88
2023-05-15T15:44:27.010Z,51.17
2023-05-15T15:46:57.214Z,55.40
2023-05-15T15:49:27.200Z,48.88
2023-05-15T15:51:57.420Z,52.25
2023-05-15T15:54:27.631Z,55.72
2023-05-15T15:56:57.834Z,49.92
2023-05-15T15:59:27.737Z,52.13
2023-05-15T16:01:58.203Z,54.45
2023-05-15T16:04:28.528Z,55.67
2023-05-15T16:06:58.357Z,51.25
2023-05-15T16:09:30.238Z,49.72
2023-05-15T16:12:01.027Z,101.50
2023-05-15T16:14:32.980Z,52.42
2023-05-15T16:17:04.848Z,49.17
2023-05-15T16:19:37.769Z,53.40
2023-05-15T16:22:07.932Z,48.38
2023-05-15T16:24:38.806Z,48.70
2023-05-15T16:28:09.282Z,48.90
2023-05-15T16:31:03.189Z,52.75
2023-05-15T16:33:34.035Z,54.25
2023-05-15T16:36:06.572Z,50.67
2023-05-15T16:38:36.830Z,50.42
2023-05-15T16:41:06.970Z,55.10
2023-05-15T16:43:39.807Z,51.00
2023-05-15T16:46:10.014Z,48.22
2023-05-15T16:48:39.948Z,47.78
2023-05-15T16:51:10.775Z,47.80
2023-05-15T16:53:41.414Z,49.85
2023-05-15T16:56:14.167Z,51.65
2023-05-15T16:58:44.611Z,50.25
2023-05-15T17:01:14.707Z,74.10
2023-05-15T17:03:46.375Z,55.03
2023-05-15T17:06:16.664Z,55.88
2023-05-15T17:08:47.693Z,54.35
2023-05-15T17:11:17.894Z,53.28
2023-05-15T17:13:47.836Z,55.00
2023-05-15T17:16:18.171Z,51.15
2023-05-15T17:18:48.041Z,55.42
2023-05-15T17:21:18.151Z,52.70
2023-05-15T17:23:48.108Z,50.58
2023-05-15T17:26:18.301Z,51.47
2023-05-15T17:28:48.250Z,51.13
2023-05-15T17:31:18.370Z,48.28
2023-05-15T17:33:49.159Z,49.67
2023-05-15T17:36:19.501Z,49.05
2023-05-15T17:38:49.338Z,53.80
2023-05-15T17:41:19.360Z,52.38
2023-05-15T17:43:50.916Z,56.42
2023-05-15T17:46:21.248Z,56.10
2023-05-15T17:48:51.079Z,55.65
2023-05-15T17:51:21.394Z,54.40
2023-05-15T17:53:51.559Z,51.95
2023-05-15T17:56:21.636Z,55.55
2023-05-15T17:58:51.875Z,52.38
2023-05-15T18:01:23.525Z,52.22
2023-05-15T18:03:54.332Z,60.50
2023-05-15T18:06:25.038Z,51.65
2023-05-15T18:08:55.453Z,50.30
2023-05-15T18:11:26.591Z,57.15
2023-05-15T18:13:56.994Z,51.10
2023-05-15T18:16:27.552Z,53.72
2023-05-15T18:18:58.018Z,55.50
2023-05-15T18:21:28.134Z,59.05
2023-05-15T18:23:57.915Z,55.10
2023-05-15T18:26:30.644Z,55.60
2023-05-15T18:29:00.825Z,53.97
2023-05-15T18:31:30.749Z,55.83
2023-05-15T18:34:02.380Z,57.60
2023-05-15T18:36:32.492Z,53.30
2023-05-15T18:39:02.852Z,56.85
2023-05-15T18:41:33.181Z,57.90
2023-05-15T18:44:02.983Z,58.53
2023-05-15T18:46:33.215Z,57.75
2023-05-15T18:49:03.164Z,58.05
2023-05-15T18:51:33.505Z,59.90
2023-05-15T18:54:03.572Z,60.83
2023-05-15T18:56:33.755Z,57.63
2023-05-15T18:59:03.616Z,64.43
2023-05-15T19:01:33.978Z,71.47
2023-05-15T19:04:05.370Z,60.22
2023-05-15T19:06:35.921Z,67.10
2023-05-15T19:09:06.402Z,56.17
2023-05-15T19:11:36.718Z,52.70
2023-05-15T19:14:06.586Z,55.15
2023-05-15T19:16:37.146Z,58.30
2023-05-15T19:19:07.904Z,56.78
2023-05-15T19:21:39.997Z,60.25
2023-05-15T19:24:10.944Z,58.08
2023-05-15T19:26:41.441Z,59.60
2023-05-15T19:29:12.036Z,59.00
2023-05-15T19:31:42.559Z,66.50
2023-05-15T19:34:12.452Z,69.25
2023-05-15T19:36:42.579Z,68.40
2023-05-15T19:39:12.518Z,66.80
2023-05-15T19:41:42.628Z,65.65
2023-05-15T19:44:12.828Z,64.90
2023-05-15T19:46:43.357Z,63.35
2023-05-15T19:49:14.182Z,67.20
2023-05-15T19:51:44.470Z,60.00
2023-05-15T19:54:14.646Z,64.00
2023-05-15T19:56:44.688Z,60.22
2023-05-15T19:59:14.610Z,57.53
2023-05-15T20:01:44.912Z,66.15
2023-05-15T20:04:15.531Z,65.55
2023-05-15T20:06:46.785Z,67.85
2023-05-15T20:09:17.002Z,60.63
2023-05-15T20:11:47.171Z,59.75
2023-05-15T20:14:17.463Z,62.40
2023-05-15T20:16:47.390Z,71.28
2023-05-15T20:19:18.529Z,70.43
2023-05-15T20:21:48.849Z,68.60
2023-05-15T20:24:19.571Z,65.45
2023-05-15T20:26:50.187Z,65.63
2023-05-15T20:29:20.675Z,67.43
2023-05-15T20:31:50.623Z,60.97
2023-05-15T20:34:20.873Z,59.45
2023-05-15T20:36:54.138Z,67.90
2023-05-15T20:39:24.421Z,61.92
2023-05-15T20:41:54.168Z,60.72
2023-05-15T20:44:24.625Z,55.85
2023-05-15T20:46:54.495Z,61.78
2023-05-15T20:49:25.277Z,63.17
2023-05-15T20:51:55.734Z,68.90
2023-05-15T20:54:25.820Z,59.35
2023-05-15T20:56:56.573Z,56.60
2023-05-15T20:59:26.947Z,62.55
2023-05-15T21:01:57.652Z,65.72
2023-05-15T21:04:28.208Z,62.30
2023-05-15T21:06:58.942Z,72.72
2023-05-15T21:09:28.810Z,61.45
2023-05-15T21:11:58.896Z,64.72
2023-05-15T21:14:28.821Z,58.55
2023-05-15T21:16:59.267Z,60.47
2023-05-15T21:19:29.235Z,64.05
2023-05-15T21:21:59.252Z,60.20
2023-05-15T21:24:29.153Z,60.30
2023-05-15T21:26:59.339Z,61.65
2023-05-15T21:29:29.183Z,68.40
2023-05-15T21:31:59.816Z,66.53
2023-05-15T21:34:29.762Z,63.28
2023-05-15T21:37:00.375Z,64.07
2023-05-15T21:39:30.249Z,61.42
2023-05-15T21:42:00.528Z,67.90
2023-05-15T21:44:30.450Z,61.85
2023-05-15T21:47:00.789Z,68.70
2023-05-15T21:49:30.638Z,63.67
2023-05-15T21:52:00.791Z,66.32
2023-05-15T21:54:30.881Z,67.63
2023-05-15T21:57:01.119Z,67.07
2023-05-15T21:59:31.073Z,65.80
2023-05-15T22:02:01.095Z,60.22
2023-05-15T22:04:31.839Z,65.55
2023-05-15T22:07:02.316Z,57.83
2023-05-15T22:09:32.211Z,57.72
2023-05-15T22:12:02.276Z,61.90
2023-05-15T22:14:35.194Z,65.07
2023-05-15T22:17:05.806Z,62.50
2023-05-15T22:19:36.097Z,59.72
2023-05-15T22:22:06.563Z,61.53
2023-05-15T22:24:37.042Z,61.75
2023-05-15T22:27:07.381Z,60.97
2023-05-15T22:29:37.221Z,59.15
2023-05-15T22:32:07.976Z,60.75
2023-05-15T22:34:38.589Z,63.58
2023-05-15T22:37:08.386Z,60.80
2023-05-15T22:39:38.344Z,59.35
2023-05-15T22:42:09.052Z,67.28
2023-05-15T22:44:39.252Z,63.33
2023-05-15T22:47:09.183Z,61.47
2023-05-15T22:49:39.587Z,64.32
2023-05-15T22:52:10.627Z,62.20
2023-05-15T22:54:42.520Z,59.90
2023-05-15T22:57:12.525Z,60.72
2023-05-15T22:59:46.125Z,59.85
2023-05-15T23:02:16.195Z,58.38
2023-05-15T23:04:46.965Z,59.67
2023-05-15T23:07:19.079Z,57.55
2023-05-15T23:09:49.426Z,61.85
2023-05-15T23:12:19.622Z,58.25
2023-05-15T23:14:49.864Z,57.28
2023-05-15T23:17:19.617Z,57.42
2023-05-15T23:19:50.073Z,57.72
2023-05-15T23:22:20.608Z,53.53
2023-05-15T23:24:50.661Z,71.88
2023-05-15T23:27:20.907Z,66.90
2023-05-15T23:29:51.072Z,60.20
2023-05-15T23:32:21.286Z,58.42
2023-05-15T23:34:51.131Z,54.05
2023-05-15T23:37:21.148Z,59.15
2023-05-15T23:39:51.036Z,54.78
2023-05-15T23:42:21.143Z,55.88
2023-05-15T23:44:52.971Z,53.17
2023-05-15T23:47:23.223Z,57.20
2023-05-15T23:49:52.991Z,58.92
2023-05-15T23:52:22.987Z,56.45
2023-05-15T23:54:53.446Z,54.70
2023-05-15T23:57:23.997Z,61.30
2023-05-15T23:59:54.331Z,52.20
